createdAt,value
2019-05-02T00:00:11.029Z,9.33
2019-05-02T00:02:40.308Z,10.60
2019-05-02T00:05:09.806Z,8.27
2019-05-02T00:07:38.920Z,9.43
2019-05-02T00:10:10.008Z,10.57
2019-05-02T00:12:38.721Z,10.17
2019-05-02T00:15:08.425Z,10.23
2019-05-02T00:17:37.077Z,9.60
2019-05-02T00:20:08.427Z,9.47
2019-05-02T00:22:37.004Z,9.77
2019-05-02T00:25:11.172Z,10.57
2019-05-02T00:27:37.714Z,10.00
2019-05-02T00:30:09.347Z,9.50
2019-05-02T00:32:37.961Z,10.57
2019-05-02T00:35:07.331Z,9.77
2019-05-02T00:37:36.073Z,9.60
2019-05-02T00:40:06.677Z,11.10
2019-05-02T00:42:35.305Z,10.07
2019-05-02T00:45:04.489Z,10.93
2019-05-02T00:47:34.695Z,10.07
2019-05-02T00:50:06.156Z,11.17
2019-05-02T00:52:36.719Z,12.30
2019-05-02T00:55:06.077Z,11.17
2019-05-02T00:57:34.706Z,10.53
2019-05-02T01:00:04.781Z,9.77
2019-05-02T01:02:43.872Z,11.63
2019-05-02T01:05:12.990Z,11.63
2019-05-02T01:07:41.915Z,10.57
2019-05-02T01:10:11.633Z,15.07
2019-05-02T01:12:44.371Z,11.67
2019-05-02T01:15:11.175Z,11.57
2019-05-02T01:17:39.758Z,12.73
2019-05-02T01:20:08.968Z,12.60
2019-05-02T01:22:37.629Z,11.93
2019-05-02T01:25:15.352Z,12.57
2019-05-02T01:27:42.566Z,14.47
2019-05-02T01:30:22.299Z,15.30
2019-05-02T01:33:10.643Z,13.90
2019-05-02T01:35:43.622Z,15.90
2019-05-02T01:38:26.285Z,19.30
2019-05-02T01:40:54.775Z,16.93
2019-05-02T01:43:31.894Z,15.23
2019-05-02T01:46:00.520Z,17.73
2019-05-02T01:48:29.169Z,17.83
2019-05-02T01:50:57.810Z,18.10
2019-05-02T01:53:29.138Z,17.63
2019-05-02T01:55:57.249Z,20.03
2019-05-02T01:58:27.149Z,24.47
2019-05-02T02:00:55.789Z,23.63
2019-05-02T02:03:24.364Z,20.60
2019-05-02T02:05:53.354Z,25.10
2019-05-02T02:08:22.055Z,23.37
2019-05-02T02:10:56.205Z,25.60
2019-05-02T02:13:21.006Z,26.70
2019-05-02T02:15:49.687Z,26.23
2019-05-02T02:18:22.393Z,22.53
2019-05-02T02:20:51.186Z,23.93
2019-05-02T02:23:37.582Z,26.70
2019-05-02T02:26:13.983Z,25.93
2019-05-02T02:28:43.267Z,24.57
2019-05-02T02:31:11.929Z,29.50
2019-05-02T02:33:47.249Z,28.57
2019-05-02T02:36:10.863Z,29.40
2019-05-02T02:38:39.439Z,27.47
2019-05-02T02:41:12.964Z,27.63
2019-05-02T02:43:38.422Z,31.27
2019-05-02T02:46:11.418Z,30.47
2019-05-02T02:48:42.455Z,26.80
2019-05-02T02:51:22.234Z,33.13
2019-05-02T02:53:40.519Z,33.60
2019-05-02T02:56:09.658Z,32.27
2019-05-02T02:58:45.806Z,31.30
2019-05-02T03:01:08.415Z,34.17
2019-05-02T03:03:37.361Z,32.33
2019-05-02T03:06:08.010Z,34.73
2019-05-02T03:08:44.529Z,35.43
2019-05-02T03:11:07.035Z,34.67
2019-05-02T03:13:51.213Z,36.27
2019-05-02T03:16:27.434Z,38.55
2019-05-02T03:18:56.068Z,34.43
2019-05-02T03:21:24.647Z,34.13
2019-05-02T03:24:01.803Z,36.13
2019-05-02T03:26:23.758Z,35.33
2019-05-02T03:28:58.675Z,37.10
2019-05-02T03:31:28.187Z,39.43
2019-05-02T03:33:59.349Z,34.57
2019-05-02T03:36:30.691Z,36.13
2019-05-02T03:38:53.873Z,35.37
2019-05-02T03:41:23.621Z,35.60
2019-05-02T03:44:09.996Z,33.60
2019-05-02T03:46:22.967Z,35.17
2019-05-02T03:48:51.766Z,33.87
2019-05-02T03:51:24.784Z,34.63
2019-05-02T03:53:50.747Z,32.07
2019-05-02T03:56:19.389Z,37.17
2019-05-02T03:58:55.450Z,35.37
2019-05-02T04:01:19.058Z,35.00
2019-05-02T04:03:47.790Z,36.33
2019-05-02T04:06:21.281Z,36.97
2019-05-02T04:08:46.607Z,39.00
2019-05-02T04:11:18.284Z,36.43
2019-05-02T04:13:47.771Z,38.17
2019-05-02T04:16:17.571Z,47.90
2019-05-02T04:18:54.399Z,44.87
2019-05-02T04:21:24.360Z,41.70
2019-05-02T04:23:49.455Z,39.53
2019-05-02T04:26:18.775Z,43.37
2019-05-02T04:28:51.882Z,44.67
2019-05-02T04:31:18.070Z,40.07
2019-05-02T04:33:46.661Z,41.27
2019-05-02T04:36:17.865Z,42.87
2019-05-02T04:38:48.780Z,44.90
2019-05-02T04:41:21.468Z,40.90
2019-05-02T04:43:51.474Z,42.87
2019-05-02T04:46:22.247Z,39.00
2019-05-02T04:48:49.742Z,38.83
2019-05-02T04:51:20.282Z,43.60
2019-05-02T04:53:49.807Z,45.40
2019-05-02T04:56:18.493Z,42.07
2019-05-02T04:58:49.372Z,44.00
2019-05-02T05:01:20.974Z,40.20
2019-05-02T05:03:56.987Z,45.50
2019-05-02T05:06:19.047Z,45.03
2019-05-02T05:08:48.447Z,40.27
2019-05-02T05:11:20.903Z,44.47
2019-05-02T05:13:48.078Z,40.93
2019-05-02T05:16:18.663Z,43.73
2019-05-02T05:18:49.273Z,43.30
2019-05-02T05:21:17.930Z,45.13
2019-05-02T05:24:01.304Z,39.83
2019-05-02T05:26:33.711Z,44.33
2019-05-02T05:28:59.774Z,37.07
2019-05-02T05:31:29.137Z,37.43
2019-05-02T05:33:58.070Z,35.07
2019-05-02T05:36:32.485Z,40.97
2019-05-02T05:38:58.271Z,37.23
2019-05-02T05:41:27.753Z,36.23
2019-05-02T05:43:57.470Z,37.90
2019-05-02T05:46:28.054Z,35.30
2019-05-02T05:48:58.297Z,35.40
2019-05-02T05:51:27.703Z,37.60
2019-05-02T05:54:02.675Z,32.50
2019-05-02T05:56:27.945Z,32.23
2019-05-02T05:58:58.886Z,33.97
2019-05-02T06:01:33.945Z,36.90
2019-05-02T06:03:58.053Z,34.87
2019-05-02T06:06:27.497Z,35.05
2019-05-02T06:08:56.188Z,31.37
2019-05-02T06:11:24.745Z,33.40
2019-05-02T06:13:53.473Z,30.07
2019-05-02T06:16:22.059Z,31.93
2019-05-02T06:18:50.622Z,34.43
2019-05-02T06:21:19.216Z,30.20
2019-05-02T06:23:47.790Z,33.37
2019-05-02T06:26:16.646Z,32.57
2019-05-02T06:28:45.218Z,34.00
2019-05-02T06:31:15.457Z,30.60
2019-05-02T06:33:44.119Z,33.67
2019-05-02T06:36:12.747Z,28.77
2019-05-02T06:38:41.394Z,31.33
2019-05-02T06:41:09.973Z,31.07
2019-05-02T06:43:41.251Z,32.00
2019-05-02T06:46:15.897Z,31.50
2019-05-02T06:48:39.252Z,31.17
2019-05-02T06:51:10.926Z,31.13
2019-05-02T06:53:41.267Z,30.37
2019-05-02T06:56:12.712Z,31.23
2019-05-02T06:58:42.092Z,29.70
2019-05-02T07:01:09.078Z,29.73
2019-05-02T07:03:41.343Z,27.30
2019-05-02T07:06:07.905Z,30.90
2019-05-02T07:08:36.491Z,27.50
2019-05-02T07:11:05.694Z,30.30
2019-05-02T07:13:36.160Z,117.83
2019-05-02T07:16:16.268Z,39.57
2019-05-02T07:18:47.685Z,30.63
2019-05-02T07:21:17.753Z,30.10
2019-05-02T07:23:48.726Z,28.00
2019-05-02T07:26:15.532Z,26.73
2019-05-02T07:28:47.192Z,29.80
2019-05-02T07:31:15.466Z,29.05
2019-05-02T07:33:44.130Z,27.40
2019-05-02T07:36:13.066Z,21.90
2019-05-02T07:38:42.504Z,28.57
2019-05-02T07:41:11.123Z,29.37
2019-05-02T07:43:39.674Z,21.07
2019-05-02T07:46:08.321Z,33.33
2019-05-02T07:48:37.190Z,22.10
2019-05-02T07:51:06.189Z,24.13
2019-05-02T07:53:34.939Z,21.87
2019-05-02T07:56:03.687Z,20.77
2019-05-02T07:58:32.246Z,21.90
2019-05-02T08:01:01.189Z,20.63
2019-05-02T08:03:33.519Z,21.60
2019-05-02T08:06:00.087Z,20.47
2019-05-02T08:08:29.821Z,19.77
2019-05-02T08:11:01.676Z,21.70
2019-05-02T08:13:31.417Z,19.83
2019-05-02T08:15:59.923Z,20.63
2019-05-02T08:18:30.386Z,21.33
2019-05-02T08:20:59.345Z,17.57
2019-05-02T08:23:28.234Z,18.63
2019-05-02T08:25:56.861Z,18.07
2019-05-02T08:28:29.758Z,18.97
2019-05-02T08:31:20.929Z,22.17
2019-05-02T08:33:49.290Z,19.67
2019-05-02T08:36:18.016Z,21.60
2019-05-02T08:38:48.893Z,19.43
2019-05-02T08:41:19.884Z,17.87
2019-05-02T08:43:47.371Z,20.80
2019-05-02T08:46:16.623Z,17.67
2019-05-02T08:48:45.372Z,18.27
2019-05-02T08:51:13.978Z,16.73
2019-05-02T08:53:42.645Z,20.13
2019-05-02T08:56:11.218Z,26.33
2019-05-02T08:58:39.792Z,17.57
2019-05-02T09:01:09.097Z,18.10
2019-05-02T09:03:54.663Z,20.10
2019-05-02T09:06:09.658Z,18.13
2019-05-02T09:08:39.922Z,20.72
2019-05-02T09:11:08.556Z,17.37
2019-05-02T09:13:37.142Z,17.03
2019-05-02T09:16:06.128Z,17.90
2019-05-02T09:18:38.596Z,17.43
2019-05-02T09:21:05.141Z,17.27
2019-05-02T09:23:37.087Z,17.97
2019-05-02T09:26:04.234Z,17.23
2019-05-02T09:28:32.809Z,17.80
2019-05-02T09:31:06.497Z,17.80
2019-05-02T09:33:36.864Z,16.77
2019-05-02T09:36:02.811Z,17.73
2019-05-02T09:38:32.906Z,16.53
2019-05-02T09:41:15.307Z,16.30
2019-05-02T09:43:34.837Z,16.47
2019-05-02T09:46:02.518Z,16.27
2019-05-02T09:48:31.912Z,18.03
2019-05-02T09:51:04.607Z,17.37
2019-05-02T09:53:32.339Z,16.67
2019-05-02T09:56:02.163Z,17.40
2019-05-02T09:58:32.081Z,18.13
2019-05-02T10:01:02.513Z,16.57
2019-05-02T10:03:32.052Z,16.70
2019-05-02T10:06:02.926Z,16.30
2019-05-02T10:08:32.116Z,15.40
2019-05-02T10:11:02.869Z,14.87
2019-05-02T10:13:32.833Z,15.83
2019-05-02T10:16:02.135Z,14.23
2019-05-02T10:18:32.803Z,13.37
2019-05-02T10:21:02.989Z,15.60
2019-05-02T10:23:33.766Z,14.47
2019-05-02T10:26:02.864Z,14.60
2019-05-02T10:28:31.779Z,13.97
2019-05-02T10:31:02.269Z,13.03
2019-05-02T10:33:33.731Z,13.67
2019-05-02T10:36:02.732Z,12.90
2019-05-02T10:38:37.022Z,12.03
2019-05-02T10:41:05.198Z,14.03
2019-05-02T10:43:33.824Z,13.17
2019-05-02T10:46:04.151Z,15.30
2019-05-02T10:48:34.363Z,13.33
2019-05-02T10:51:25.629Z,13.13
2019-05-02T10:53:52.708Z,14.43
2019-05-02T10:56:22.137Z,15.37
2019-05-02T10:58:52.288Z,13.90
2019-05-02T11:01:22.658Z,12.47
2019-05-02T11:03:52.865Z,14.87
2019-05-02T11:06:22.294Z,15.10
2019-05-02T11:08:52.436Z,14.40
2019-05-02T11:11:21.973Z,15.37
2019-05-02T11:14:00.714Z,15.00
2019-05-02T11:16:32.034Z,14.23
2019-05-02T11:19:02.478Z,15.07
2019-05-02T11:21:32.161Z,15.13
2019-05-02T11:24:02.436Z,13.60
2019-05-02T11:26:32.407Z,14.97
2019-05-02T11:29:03.016Z,13.70
2019-05-02T11:31:32.499Z,14.50
2019-05-02T11:34:01.858Z,13.43
2019-05-02T11:36:32.864Z,13.63
2019-05-02T11:39:11.527Z,14.00
2019-05-02T11:41:32.109Z,14.70
2019-05-02T11:44:02.770Z,13.20
2019-05-02T11:46:32.844Z,14.13
2019-05-02T11:49:02.363Z,14.53
2019-05-02T11:51:32.708Z,13.87
2019-05-02T11:54:07.588Z,14.33
2019-05-02T11:56:32.979Z,14.57
2019-05-02T11:59:02.882Z,14.73
2019-05-02T12:01:37.366Z,14.53
2019-05-02T12:04:02.977Z,14.47
2019-05-02T12:06:33.165Z,14.90
2019-05-02T12:09:02.809Z,16.90
2019-05-02T12:11:32.334Z,15.43
2019-05-02T12:14:01.712Z,16.40
2019-05-02T12:16:32.324Z,16.10
2019-05-02T12:19:09.418Z,15.93
2019-05-02T12:21:32.539Z,15.10
2019-05-02T12:24:02.219Z,16.67
2019-05-02T12:26:32.328Z,15.63
2019-05-02T12:29:02.635Z,14.47
2019-05-02T12:31:32.453Z,14.87
2019-05-02T12:34:02.953Z,15.67
2019-05-02T12:36:33.388Z,14.87
2019-05-02T12:39:02.437Z,16.10
2019-05-02T12:41:33.005Z,15.10
2019-05-02T12:44:02.265Z,16.20
2019-05-02T12:46:31.705Z,12.63
2019-05-02T12:49:02.616Z,12.13
2019-05-02T12:51:32.021Z,12.67
2019-05-02T12:54:02.330Z,13.30
2019-05-02T12:56:32.449Z,10.63
2019-05-02T12:59:02.440Z,9.50
2019-05-02T13:01:32.966Z,10.23
2019-05-02T13:04:04.002Z,9.73
2019-05-02T13:06:32.934Z,9.93
2019-05-02T13:09:03.097Z,10.57
2019-05-02T13:11:36.986Z,10.93
2019-05-02T13:14:04.822Z,10.30
2019-05-02T13:16:33.741Z,10.57
2019-05-02T13:19:06.061Z,10.00
2019-05-02T13:21:50.116Z,9.97
2019-05-02T13:24:32.554Z,9.90
2019-05-02T13:27:04.044Z,9.53
2019-05-02T13:29:32.249Z,11.17
2019-05-02T13:32:02.597Z,8.87
2019-05-02T13:34:32.910Z,9.77
2019-05-02T13:37:03.020Z,8.93
2019-05-02T13:39:33.265Z,8.93
2019-05-02T13:42:02.333Z,9.07
2019-05-02T13:44:32.731Z,11.97
2019-05-02T13:47:02.754Z,10.03
2019-05-02T13:49:32.413Z,9.00
2019-05-02T13:52:02.482Z,9.20
2019-05-02T13:54:32.952Z,10.40
2019-05-02T13:57:03.098Z,10.07
2019-05-02T13:59:33.716Z,10.03
2019-05-02T14:02:02.987Z,8.90
2019-05-02T14:04:32.639Z,10.60
2019-05-02T14:07:02.954Z,10.40
2019-05-02T14:09:38.940Z,11.00
2019-05-02T14:12:09.502Z,9.23
2019-05-02T14:14:38.156Z,9.33
2019-05-02T14:17:06.807Z,8.07
2019-05-02T14:19:35.377Z,8.43
2019-05-02T14:22:04.974Z,8.33
2019-05-02T14:24:33.479Z,7.60
2019-05-02T14:27:02.782Z,8.30
2019-05-02T14:29:32.945Z,7.40
2019-05-02T14:32:02.700Z,6.77
2019-05-02T14:34:35.747Z,9.10
2019-05-02T14:37:04.884Z,6.77
2019-05-02T14:39:33.461Z,6.90
2019-05-02T14:42:02.202Z,6.07
2019-05-02T14:44:57.936Z,6.40
2019-05-02T14:47:02.202Z,7.87
2019-05-02T14:49:32.124Z,6.03
2019-05-02T14:52:03.044Z,7.43
2019-05-02T14:54:32.421Z,6.80
2019-05-02T14:57:02.863Z,6.67
2019-05-02T14:59:32.279Z,7.00
2019-05-02T15:02:06.835Z,7.10
2019-05-02T15:04:33.147Z,7.53
2019-05-02T15:07:02.162Z,6.47
2019-05-02T15:09:32.650Z,7.87
2019-05-02T15:12:13.524Z,7.83
2019-05-02T15:14:35.286Z,6.20
2019-05-02T15:17:04.767Z,8.07
2019-05-02T15:19:33.377Z,7.23
2019-05-02T15:22:02.435Z,7.43
2019-05-02T15:24:36.090Z,7.33
2019-05-02T15:27:10.948Z,7.77
2019-05-02T15:29:32.639Z,7.10
2019-05-02T15:32:07.070Z,8.23
2019-05-02T15:34:52.528Z,8.07
2019-05-02T15:37:24.110Z,7.07
2019-05-02T15:42:22.730Z,7.63
2019-05-02T15:44:52.277Z,8.20
2019-05-02T15:47:22.501Z,8.30
2019-05-02T15:49:52.821Z,8.93
2019-05-02T15:52:24.119Z,8.73
2019-05-02T15:54:59.441Z,7.83
2019-05-02T15:57:24.918Z,7.60
2019-05-02T15:59:53.754Z,7.43
2019-05-02T16:02:26.548Z,11.50
2019-05-02T16:04:57.056Z,9.57
2019-05-02T16:07:25.023Z,5.87
2019-05-02T16:09:57.243Z,6.80
2019-05-02T16:12:27.260Z,5.57
2019-05-02T16:14:54.087Z,5.03
2019-05-02T16:17:25.633Z,5.77
2019-05-02T16:19:58.681Z,5.57
2019-05-02T16:22:26.319Z,5.67
2019-05-02T16:24:56.617Z,5.03
2019-05-02T16:27:44.564Z,5.00
2019-05-02T16:30:16.860Z,5.83
2019-05-02T16:32:47.424Z,6.20
2019-05-02T16:35:17.814Z,5.23
2019-05-02T16:37:46.776Z,5.93
2019-05-02T16:40:22.131Z,6.15
2019-05-02T16:42:48.902Z,5.90
2019-05-02T16:45:18.038Z,5.73
2019-05-02T16:47:49.636Z,5.87
2019-05-02T16:50:18.772Z,5.43
2019-05-02T16:52:47.598Z,5.20
2019-05-02T16:55:20.959Z,5.30
2019-05-02T16:57:47.461Z,5.57
2019-05-02T17:00:22.635Z,5.20
2019-05-02T17:02:51.435Z,4.53
2019-05-02T17:05:21.946Z,4.83
2019-05-02T17:08:02.284Z,4.20
2019-05-02T17:10:35.163Z,4.10
2019-05-02T17:13:04.270Z,3.90
2019-05-02T17:15:35.232Z,4.93
2019-05-02T17:18:12.945Z,4.67
2019-05-02T17:20:36.153Z,5.40
2019-05-02T17:23:07.374Z,5.00
2019-05-02T17:25:36.559Z,5.03
2019-05-02T17:28:10.024Z,5.10
2019-05-02T17:30:38.815Z,9.13
2019-05-02T17:33:07.338Z,5.40
2019-05-02T17:35:36.310Z,5.23
2019-05-02T17:38:05.437Z,7.05
2019-05-02T17:40:34.011Z,5.20
2019-05-02T17:43:06.713Z,4.90
2019-05-02T17:45:38.023Z,6.07
2019-05-02T17:48:08.450Z,5.33
2019-05-02T17:50:55.953Z,5.57
2019-05-02T17:53:22.550Z,6.13
2019-05-02T17:55:52.602Z,6.33
2019-05-02T17:58:21.251Z,5.60
2019-05-02T18:00:55.801Z,5.10
2019-05-02T18:03:24.225Z,6.47
2019-05-02T18:05:52.912Z,5.77
2019-05-02T18:08:21.916Z,6.23
2019-05-02T18:10:56.109Z,6.17
2019-05-02T18:13:22.676Z,4.70
2019-05-02T18:15:53.283Z,5.50
2019-05-02T18:18:22.154Z,5.13
2019-05-02T18:20:52.867Z,5.03
2019-05-02T18:23:25.838Z,4.80
2019-05-02T18:25:52.556Z,5.70
2019-05-02T18:28:25.931Z,5.63
2019-05-02T18:30:52.482Z,4.63
2019-05-02T18:33:22.691Z,5.03
2019-05-02T18:35:52.627Z,4.90
2019-05-02T18:38:22.376Z,5.07
2019-05-02T18:40:52.117Z,5.37
2019-05-02T18:43:22.240Z,5.17
2019-05-02T18:45:51.533Z,5.70
2019-05-02T18:48:21.920Z,8.63
2019-05-02T18:50:52.669Z,5.77
2019-05-02T18:53:24.260Z,6.00
2019-05-02T18:55:52.072Z,6.70
2019-05-02T18:58:22.555Z,5.87
2019-05-02T19:00:51.965Z,5.83
2019-05-02T19:03:22.834Z,6.70
2019-05-02T19:05:56.633Z,6.73
2019-05-02T19:08:29.159Z,7.37
2019-05-02T19:11:04.637Z,6.20
2019-05-02T19:13:22.434Z,7.07
2019-05-02T19:15:53.241Z,5.90
2019-05-02T19:18:21.590Z,5.83
2019-05-02T19:20:57.335Z,6.17
2019-05-02T19:23:24.291Z,6.10
2019-05-02T19:25:53.039Z,5.90
2019-05-02T19:28:36.743Z,5.63
2019-05-02T19:31:02.969Z,6.07
2019-05-02T19:33:31.873Z,6.13
2019-05-02T19:36:02.675Z,5.83
2019-05-02T19:38:32.341Z,5.73
2019-05-02T19:41:05.403Z,5.47
2019-05-02T19:43:34.790Z,4.87
2019-05-02T19:46:02.412Z,5.13
2019-05-02T19:48:35.207Z,5.47
2019-05-02T19:51:02.498Z,7.23
2019-05-02T19:53:32.409Z,5.20
2019-05-02T19:56:02.930Z,5.20
2019-05-02T19:58:36.821Z,5.40
2019-05-02T20:01:04.107Z,5.27
2019-05-02T20:03:32.831Z,4.70
2019-05-02T20:06:05.813Z,5.93
2019-05-02T20:08:32.587Z,5.40
2019-05-02T20:11:02.096Z,5.13
2019-05-02T20:13:32.720Z,6.40
2019-05-02T20:16:06.045Z,4.80
2019-05-02T20:18:42.441Z,4.97
2019-05-02T20:21:12.087Z,5.03
2019-05-02T20:23:37.471Z,5.27
2019-05-02T20:26:09.520Z,5.30
2019-05-02T20:28:36.883Z,4.70
2019-05-02T20:31:05.686Z,4.90
2019-05-02T20:33:34.185Z,5.03
2019-05-02T20:36:02.803Z,5.47
2019-05-02T20:38:32.424Z,5.13
2019-05-02T20:41:02.966Z,5.03
2019-05-02T20:43:32.333Z,5.77
2019-05-02T20:46:02.607Z,6.15
2019-05-02T20:48:32.265Z,5.53
2019-05-02T20:51:02.764Z,5.47
2019-05-02T20:53:34.069Z,5.30
2019-05-02T20:56:01.947Z,5.77
2019-05-02T20:58:32.470Z,6.27
2019-05-02T21:01:06.228Z,5.50
2019-05-02T21:03:32.065Z,7.23
2019-05-02T21:06:04.817Z,6.70
2019-05-02T21:08:41.765Z,5.93
2019-05-02T21:11:12.305Z,5.67
2019-05-02T21:13:41.838Z,8.40
2019-05-02T21:16:12.389Z,11.70
2019-05-02T21:18:42.248Z,14.57
2019-05-02T21:21:12.583Z,16.43
2019-05-02T21:23:47.144Z,17.90
2019-05-02T21:26:11.939Z,19.53
2019-05-02T21:28:42.653Z,18.83
2019-05-02T21:31:12.148Z,16.67
2019-05-02T21:33:42.755Z,21.60
2019-05-02T21:36:12.159Z,20.70
2019-05-02T21:38:42.724Z,17.67
2019-05-02T21:41:12.087Z,22.00
2019-05-02T21:43:42.527Z,17.30
2019-05-02T21:46:11.205Z,20.27
2019-05-02T21:48:41.825Z,23.77
2019-05-02T21:51:12.113Z,17.77
2019-05-02T21:53:54.966Z,18.60
2019-05-02T21:56:35.273Z,19.77
2019-05-02T21:59:07.645Z,19.40
2019-05-02T22:01:43.462Z,17.13
2019-05-02T22:04:13.105Z,17.17
2019-05-02T22:06:42.713Z,15.03
2019-05-02T22:09:12.312Z,13.90
2019-05-02T22:11:42.995Z,15.03
2019-05-02T22:14:13.421Z,11.97
2019-05-02T22:16:42.361Z,10.43
2019-05-02T22:19:11.330Z,10.23
2019-05-02T22:21:40.327Z,10.33
2019-05-02T22:24:11.658Z,10.23
2019-05-02T22:26:39.219Z,9.13
2019-05-02T22:29:07.791Z,8.80
2019-05-02T22:31:36.446Z,8.23
2019-05-02T22:34:05.310Z,8.13
2019-05-02T22:36:34.025Z,8.87
2019-05-02T22:39:04.340Z,6.43
2019-05-02T22:41:32.955Z,7.00
2019-05-02T22:44:02.005Z,7.10
2019-05-02T22:46:43.788Z,8.00
2019-05-02T22:49:14.604Z,6.07
2019-05-02T22:51:44.214Z,8.57
2019-05-02T22:54:24.021Z,7.77
2019-05-02T22:56:43.913Z,9.37
2019-05-02T22:59:12.602Z,7.20
2019-05-02T23:01:42.176Z,6.77
2019-05-02T23:04:12.760Z,6.70
2019-05-02T23:06:43.829Z,6.93
2019-05-02T23:09:12.689Z,8.50
2019-05-02T23:11:42.689Z,6.47
2019-05-02T23:14:11.571Z,6.43
2019-05-02T23:16:42.642Z,6.13
2019-05-02T23:19:12.361Z,6.57
2019-05-02T23:21:42.186Z,6.37
2019-05-02T23:24:14.652Z,6.30
2019-05-02T23:26:48.435Z,6.53
2019-05-02T23:29:18.493Z,7.80
2019-05-02T23:31:47.088Z,8.43
2019-05-02T23:34:15.686Z,7.17
2019-05-02T23:36:44.347Z,7.00
2019-05-02T23:39:13.082Z,7.83
2019-05-02T23:41:42.157Z,6.87
2019-05-02T23:44:12.281Z,9.10
2019-05-02T23:46:42.430Z,8.33
2019-05-02T23:49:12.829Z,9.30
2019-05-02T23:51:42.726Z,10.03
2019-05-02T23:54:12.946Z,9.10
2019-05-02T23:56:43.139Z,9.33
2019-05-02T23:59:12.371Z,10.63
